Terminal Aerodrome Forecast
Issued by NWS Sioux Falls, SD

Home | Current Version | Previous Version | Text Only | Print | Product List | Glossary On
Versions: 1 2 3 4 5 6 7 8 9 10 11 12 13 14 15 16 17 18 19 20 21 22 23 24 25 26 27 28 29 30 31 32 33 34 35 36
000
FTUS43 KFSD 202320
TAFHON
TAF
KHON 202320Z 2100/2124 33008KT P6SM SKC
     FM210900 VRB04KT 1SM BR FEW003
      TEMPO 2110/2114 1/2SM FG
     FM211600 26006KT 4SM BR FEW010
     FM211800 27006KT P6SM FEW130=

USA.gov is the U.S. government's official web portal to all federal, state and local government web resources and services.